sensor_id;sensor_type;location;lat;lon;timestamp;P1;durP1;ratioP1;P2;durP2;ratioP2
5351;SDS011;2698;51.454;6.736;2022-12-29T00:00:07;1.00;;;1.00;;
5351;SDS011;2698;51.454;6.736;2022-12-29T00:02:36;1.03;;;1.03;;
5351;SDS011;2698;51.454;6.736;2022-12-29T00:05:03;1.00;;;0.90;;
5351;SDS011;2698;51.454;6.736;2022-12-29T00:07:31;1.00;;;1.00;;
5351;SDS011;2698;51.454;6.736;2022-12-29T00:09:58;0.90;;;0.90;;
5351;SDS011;2698;51.454;6.736;2022-12-29T00:12:25;1.33;;;1.23;;
5351;SDS011;2698;51.454;6.736;2022-12-29T00:15:11;5.33;;;1.20;;
5351;SDS011;2698;51.454;6.736;2022-12-29T00:17:55;1.20;;;1.20;;
5351;SDS011;2698;51.454;6.736;2022-12-29T00:20:22;1.30;;;1.20;;
5351;SDS011;2698;51.454;6.736;2022-12-29T00:23:09;1.63;;;1.20;;
5351;SDS011;2698;51.454;6.736;2022-12-29T00:25:53;1.43;;;1.43;;
5351;SDS011;2698;51.454;6.736;2022-12-29T00:28:37;0.80;;;0.80;;
5351;SDS011;2698;51.454;6.736;2022-12-29T00:31:21;1.00;;;1.00;;
5351;SDS011;2698;51.454;6.736;2022-12-29T00:34:07;1.20;;;1.20;;
5351;SDS011;2698;51.454;6.736;2022-12-29T00:36:54;1.00;;;0.90;;
5351;SDS011;2698;51.454;6.736;2022-12-29T00:39:22;1.07;;;1.07;;
5351;SDS011;2698;51.454;6.736;2022-12-29T00:42:07;0.80;;;0.80;;
5351;SDS011;2698;51.454;6.736;2022-12-29T00:44:52;1.63;;;1.10;;
5351;SDS011;2698;51.454;6.736;2022-12-29T00:47:19;0.80;;;0.80;;
5351;SDS011;2698;51.454;6.736;2022-12-29T00:49:46;0.97;;;0.97;;
5351;SDS011;2698;51.454;6.736;2022-12-29T00:52:12;1.37;;;1.03;;
5351;SDS011;2698;51.454;6.736;2022-12-29T00:54:41;1.37;;;1.27;;
5351;SDS011;2698;51.454;6.736;2022-12-29T00:57:10;0.90;;;0.90;;
5351;SDS011;2698;51.454;6.736;2022-12-29T00:59:37;1.10;;;1.00;;
5351;SDS011;2698;51.454;6.736;2022-12-29T01:02:05;5.70;;;1.10;;
5351;SDS011;2698;51.454;6.736;2022-12-29T01:04:32;0.80;;;0.80;;
5351;SDS011;2698;51.454;6.736;2022-12-29T01:06:59;5.73;;;1.23;;
5351;SDS011;2698;51.454;6.736;2022-12-29T01:09:26;1.00;;;1.00;;
5351;SDS011;2698;51.454;6.736;2022-12-29T01:12:11;2.83;;;1.07;;
5351;SDS011;2698;51.454;6.736;2022-12-29T01:14:38;1.53;;;1.23;;
5351;SDS011;2698;51.454;6.736;2022-12-29T01:17:05;2.73;;;1.40;;
5351;SDS011;2698;51.454;6.736;2022-12-29T01:19:32;1.00;;;0.63;;
5351;SDS011;2698;51.454;6.736;2022-12-29T01:21:59;0.90;;;0.90;;
5351;SDS011;2698;51.454;6.736;2022-12-29T01:24:26;0.80;;;0.80;;
5351;SDS011;2698;51.454;6.736;2022-12-29T01:26:53;0.80;;;0.77;;
5351;SDS011;2698;51.454;6.736;2022-12-29T01:29:21;0.77;;;0.77;;
5351;SDS011;2698;51.454;6.736;2022-12-29T01:31:48;1.50;;;0.90;;
5351;SDS011;2698;51.454;6.736;2022-12-29T01:34:15;1.07;;;0.80;;
5351;SDS011;2698;51.454;6.736;2022-12-29T01:36:42;0.70;;;0.70;;
5351;SDS011;2698;51.454;6.736;2022-12-29T01:39:09;1.20;;;1.10;;
5351;SDS011;2698;51.454;6.736;2022-12-29T01:41:36;0.83;;;0.83;;
5351;SDS011;2698;51.454;6.736;2022-12-29T01:44:02;0.60;;;0.60;;
5351;SDS011;2698;51.454;6.736;2022-12-29T01:46:45;0.60;;;0.60;;
5351;SDS011;2698;51.454;6.736;2022-12-29T01:49:14;0.90;;;0.90;;
5351;SDS011;2698;51.454;6.736;2022-12-29T01:51:45;0.77;;;0.70;;
5351;SDS011;2698;51.454;6.736;2022-12-29T01:54:16;1.00;;;0.90;;
5351;SDS011;2698;51.454;6.736;2022-12-29T01:56:47;0.80;;;0.80;;
5351;SDS011;2698;51.454;6.736;2022-12-29T01:59:16;0.73;;;0.60;;
5351;SDS011;2698;51.454;6.736;2022-12-29T02:01:48;0.83;;;0.83;;
5351;SDS011;2698;51.454;6.736;2022-12-29T02:04:16;0.70;;;0.70;;
5351;SDS011;2698;51.454;6.736;2022-12-29T02:06:45;1.00;;;0.80;;
5351;SDS011;2698;51.454;6.736;2022-12-29T02:09:15;0.70;;;0.70;;
5351;SDS011;2698;51.454;6.736;2022-12-29T02:11:42;3.07;;;1.23;;
5351;SDS011;2698;51.454;6.736;2022-12-29T02:14:09;1.17;;;0.80;;
5351;SDS011;2698;51.454;6.736;2022-12-29T02:16:40;0.80;;;0.80;;
5351;SDS011;2698;51.454;6.736;2022-12-29T02:19:33;1.23;;;1.23;;
5351;SDS011;2698;51.454;6.736;2022-12-29T02:22:26;1.47;;;0.83;;
5351;SDS011;2698;51.454;6.736;2022-12-29T02:25:14;0.70;;;0.70;;
5351;SDS011;2698;51.454;6.736;2022-12-29T02:27:58;1.43;;;1.33;;
5351;SDS011;2698;51.454;6.736;2022-12-29T02:33:33;1.47;;;1.07;;
5351;SDS011;2698;51.454;6.736;2022-12-29T02:36:12;3.03;;;1.00;;
5351;SDS011;2698;51.454;6.736;2022-12-29T02:38:49;1.03;;;0.90;;
5351;SDS011;2698;51.454;6.736;2022-12-29T02:41:27;3.53;;;1.20;;
5351;SDS011;2698;51.454;6.736;2022-12-29T02:43:59;3.27;;;1.00;;
5351;SDS011;2698;51.454;6.736;2022-12-29T02:46:33;2.40;;;1.20;;
5351;SDS011;2698;51.454;6.736;2022-12-29T02:49:05;2.80;;;1.17;;
5351;SDS011;2698;51.454;6.736;2022-12-29T02:51:48;1.00;;;1.00;;
5351;SDS011;2698;51.454;6.736;2022-12-29T02:54:20;1.17;;;1.17;;
5351;SDS011;2698;51.454;6.736;2022-12-29T02:57:05;1.00;;;0.90;;
5351;SDS011;2698;51.454;6.736;2022-12-29T02:59:36;1.00;;;1.00;;
5351;SDS011;2698;51.454;6.736;2022-12-29T03:02:07;1.10;;;1.10;;
5351;SDS011;2698;51.454;6.736;2022-12-29T03:05:00;1.93;;;1.10;;
5351;SDS011;2698;51.454;6.736;2022-12-29T03:07:46;1.77;;;1.20;;
5351;SDS011;2698;51.454;6.736;2022-12-29T03:10:23;2.20;;;1.20;;
5351;SDS011;2698;51.454;6.736;2022-12-29T03:13:00;1.57;;;1.00;;
5351;SDS011;2698;51.454;6.736;2022-12-29T03:15:50;1.13;;;1.10;;
5351;SDS011;2698;51.454;6.736;2022-12-29T03:18:32;2.30;;;1.37;;
5351;SDS011;2698;51.454;6.736;2022-12-29T03:21:07;2.73;;;1.27;;
5351;SDS011;2698;51.454;6.736;2022-12-29T03:23:37;2.30;;;1.67;;
5351;SDS011;2698;51.454;6.736;2022-12-29T03:26:08;3.67;;;1.27;;
5351;SDS011;2698;51.454;6.736;2022-12-29T03:28:38;1.27;;;0.90;;
5351;SDS011;2698;51.454;6.736;2022-12-29T03:31:10;4.50;;;1.20;;
5351;SDS011;2698;51.454;6.736;2022-12-29T03:33:40;1.43;;;1.33;;
5351;SDS011;2698;51.454;6.736;2022-12-29T03:36:10;1.97;;;1.30;;
5351;SDS011;2698;51.454;6.736;2022-12-29T03:38:43;2.40;;;1.10;;
5351;SDS011;2698;51.454;6.736;2022-12-29T03:41:14;1.00;;;0.90;;
5351;SDS011;2698;51.454;6.736;2022-12-29T03:43:45;1.30;;;1.20;;
5351;SDS011;2698;51.454;6.736;2022-12-29T03:46:12;3.33;;;1.37;;
5351;SDS011;2698;51.454;6.736;2022-12-29T03:48:40;3.30;;;1.37;;
5351;SDS011;2698;51.454;6.736;2022-12-29T03:51:07;1.20;;;1.20;;
5351;SDS011;2698;51.454;6.736;2022-12-29T03:53:34;1.17;;;1.10;;
5351;SDS011;2698;51.454;6.736;2022-12-29T03:56:01;3.80;;;1.50;;
5351;SDS011;2698;51.454;6.736;2022-12-29T03:58:27;1.03;;;0.93;;
5351;SDS011;2698;51.454;6.736;2022-12-29T04:00:54;1.10;;;1.10;;
5351;SDS011;2698;51.454;6.736;2022-12-29T04:03:21;0.90;;;0.70;;
5351;SDS011;2698;51.454;6.736;2022-12-29T04:05:49;1.90;;;0.90;;
5351;SDS011;2698;51.454;6.736;2022-12-29T04:08:16;2.93;;;1.10;;
5351;SDS011;2698;51.454;6.736;2022-12-29T04:10:42;7.47;;;1.33;;
5351;SDS011;2698;51.454;6.736;2022-12-29T04:13:09;1.43;;;1.00;;
5351;SDS011;2698;51.454;6.736;2022-12-29T04:15:36;2.03;;;1.30;;
5351;SDS011;2698;51.454;6.736;2022-12-29T04:18:02;1.20;;;1.10;;
5351;SDS011;2698;51.454;6.736;2022-12-29T04:20:29;0.90;;;0.90;;
5351;SDS011;2698;51.454;6.736;2022-12-29T04:23:15;1.00;;;0.90;;
5351;SDS011;2698;51.454;6.736;2022-12-29T04:25:44;1.10;;;1.10;;
5351;SDS011;2698;51.454;6.736;2022-12-29T04:28:11;1.17;;;0.97;;
5351;SDS011;2698;51.454;6.736;2022-12-29T04:30:38;1.23;;;0.87;;
5351;SDS011;2698;51.454;6.736;2022-12-29T04:33:04;2.00;;;1.00;;
5351;SDS011;2698;51.454;6.736;2022-12-29T04:35:31;4.23;;;1.10;;
5351;SDS011;2698;51.454;6.736;2022-12-29T04:37:58;1.80;;;1.10;;
5351;SDS011;2698;51.454;6.736;2022-12-29T04:40:26;1.33;;;0.93;;
5351;SDS011;2698;51.454;6.736;2022-12-29T04:42:53;1.60;;;1.03;;
5351;SDS011;2698;51.454;6.736;2022-12-29T04:45:20;3.47;;;1.23;;
5351;SDS011;2698;51.454;6.736;2022-12-29T04:47:47;0.80;;;0.80;;
5351;SDS011;2698;51.454;6.736;2022-12-29T04:50:13;1.07;;;0.97;;
5351;SDS011;2698;51.454;6.736;2022-12-29T04:52:40;0.80;;;0.80;;
5351;SDS011;2698;51.454;6.736;2022-12-29T04:55:07;0.90;;;0.90;;
5351;SDS011;2698;51.454;6.736;2022-12-29T04:57:35;2.07;;;1.40;;
5351;SDS011;2698;51.454;6.736;2022-12-29T05:00:03;2.13;;;1.40;;
5351;SDS011;2698;51.454;6.736;2022-12-29T05:02:30;1.50;;;0.80;;
5351;SDS011;2698;51.454;6.736;2022-12-29T05:04:57;3.10;;;1.50;;
5351;SDS011;2698;51.454;6.736;2022-12-29T05:07:23;1.80;;;0.80;;
5351;SDS011;2698;51.454;6.736;2022-12-29T05:09:51;1.80;;;0.97;;
5351;SDS011;2698;51.454;6.736;2022-12-29T05:12:17;1.53;;;0.97;;
5351;SDS011;2698;51.454;6.736;2022-12-29T05:14:45;1.20;;;0.90;;
5351;SDS011;2698;51.454;6.736;2022-12-29T05:17:12;2.00;;;1.40;;
5351;SDS011;2698;51.454;6.736;2022-12-29T05:19:39;1.00;;;0.80;;
5351;SDS011;2698;51.454;6.736;2022-12-29T05:22:06;1.90;;;1.10;;
5351;SDS011;2698;51.454;6.736;2022-12-29T05:24:32;1.90;;;1.00;;
5351;SDS011;2698;51.454;6.736;2022-12-29T05:26:59;4.50;;;1.40;;
5351;SDS011;2698;51.454;6.736;2022-12-29T05:29:26;1.10;;;1.00;;
5351;SDS011;2698;51.454;6.736;2022-12-29T05:31:54;10.53;;;1.07;;
5351;SDS011;2698;51.454;6.736;2022-12-29T05:34:21;1.43;;;1.03;;
5351;SDS011;2698;51.454;6.736;2022-12-29T05:36:47;2.80;;;1.40;;
5351;SDS011;2698;51.454;6.736;2022-12-29T05:39:14;1.73;;;0.90;;
5351;SDS011;2698;51.454;6.736;2022-12-29T05:41:41;2.37;;;1.10;;
5351;SDS011;2698;51.454;6.736;2022-12-29T05:44:09;3.13;;;1.27;;
5351;SDS011;2698;51.454;6.736;2022-12-29T05:46:36;5.47;;;0.87;;
5351;SDS011;2698;51.454;6.736;2022-12-29T05:49:04;1.23;;;0.90;;
5351;SDS011;2698;51.454;6.736;2022-12-29T05:51:31;3.67;;;1.43;;
5351;SDS011;2698;51.454;6.736;2022-12-29T05:53:59;1.50;;;0.90;;
5351;SDS011;2698;51.454;6.736;2022-12-29T05:56:26;5.40;;;1.60;;
5351;SDS011;2698;51.454;6.736;2022-12-29T05:58:52;1.23;;;1.00;;
5351;SDS011;2698;51.454;6.736;2022-12-29T06:01:19;1.33;;;1.10;;
5351;SDS011;2698;51.454;6.736;2022-12-29T06:03:46;1.80;;;0.90;;
5351;SDS011;2698;51.454;6.736;2022-12-29T06:06:14;1.87;;;1.20;;
5351;SDS011;2698;51.454;6.736;2022-12-29T06:08:41;4.60;;;1.60;;
5351;SDS011;2698;51.454;6.736;2022-12-29T06:11:08;1.90;;;1.30;;
5351;SDS011;2698;51.454;6.736;2022-12-29T06:13:34;4.00;;;0.90;;
5351;SDS011;2698;51.454;6.736;2022-12-29T06:16:01;1.73;;;0.90;;
5351;SDS011;2698;51.454;6.736;2022-12-29T06:18:28;4.17;;;1.20;;
5351;SDS011;2698;51.454;6.736;2022-12-29T06:20:58;1.60;;;0.93;;
5351;SDS011;2698;51.454;6.736;2022-12-29T06:23:27;2.87;;;1.00;;
5351;SDS011;2698;51.454;6.736;2022-12-29T06:25:54;8.97;;;1.20;;
5351;SDS011;2698;51.454;6.736;2022-12-29T06:28:21;5.60;;;1.27;;
5351;SDS011;2698;51.454;6.736;2022-12-29T06:30:48;1.00;;;0.83;;
5351;SDS011;2698;51.454;6.736;2022-12-29T06:33:15;2.73;;;1.23;;
5351;SDS011;2698;51.454;6.736;2022-12-29T06:35:41;5.23;;;1.00;;
5351;SDS011;2698;51.454;6.736;2022-12-29T06:38:09;4.20;;;1.23;;
5351;SDS011;2698;51.454;6.736;2022-12-29T06:40:37;3.27;;;1.30;;
5351;SDS011;2698;51.454;6.736;2022-12-29T06:43:04;4.63;;;1.13;;
5351;SDS011;2698;51.454;6.736;2022-12-29T06:45:31;4.53;;;1.63;;
5351;SDS011;2698;51.454;6.736;2022-12-29T06:47:58;1.70;;;0.90;;
5351;SDS011;2698;51.454;6.736;2022-12-29T06:50:24;1.90;;;0.97;;
5351;SDS011;2698;51.454;6.736;2022-12-29T06:52:51;5.60;;;1.60;;
5351;SDS011;2698;51.454;6.736;2022-12-29T06:55:18;2.53;;;1.13;;
5351;SDS011;2698;51.454;6.736;2022-12-29T06:57:47;5.47;;;1.00;;
5351;SDS011;2698;51.454;6.736;2022-12-29T07:00:14;3.67;;;0.93;;
5351;SDS011;2698;51.454;6.736;2022-12-29T07:02:42;2.17;;;1.17;;
5351;SDS011;2698;51.454;6.736;2022-12-29T07:05:08;3.60;;;0.97;;
5351;SDS011;2698;51.454;6.736;2022-12-29T07:07:35;5.43;;;1.30;;
5351;SDS011;2698;51.454;6.736;2022-12-29T07:10:02;4.37;;;1.30;;
5351;SDS011;2698;51.454;6.736;2022-12-29T07:12:29;4.07;;;1.30;;
5351;SDS011;2698;51.454;6.736;2022-12-29T07:14:57;2.30;;;1.27;;
5351;SDS011;2698;51.454;6.736;2022-12-29T07:17:24;5.23;;;1.20;;
5351;SDS011;2698;51.454;6.736;2022-12-29T07:19:51;2.70;;;1.13;;
5351;SDS011;2698;51.454;6.736;2022-12-29T07:22:18;4.93;;;1.40;;
5351;SDS011;2698;51.454;6.736;2022-12-29T07:24:44;2.20;;;1.50;;
5351;SDS011;2698;51.454;6.736;2022-12-29T07:27:11;4.10;;;1.17;;
5351;SDS011;2698;51.454;6.736;2022-12-29T07:29:38;5.57;;;1.70;;
5351;SDS011;2698;51.454;6.736;2022-12-29T07:32:06;5.27;;;1.50;;
5351;SDS011;2698;51.454;6.736;2022-12-29T07:34:33;2.47;;;1.50;;
5351;SDS011;2698;51.454;6.736;2022-12-29T07:37:00;2.90;;;1.63;;
5351;SDS011;2698;51.454;6.736;2022-12-29T07:39:27;4.53;;;1.43;;
5351;SDS011;2698;51.454;6.736;2022-12-29T07:41:53;7.03;;;1.37;;
5351;SDS011;2698;51.454;6.736;2022-12-29T07:44:20;7.43;;;1.37;;
5351;SDS011;2698;51.454;6.736;2022-12-29T07:46:47;4.77;;;1.50;;
5351;SDS011;2698;51.454;6.736;2022-12-29T07:49:15;5.60;;;1.50;;
5351;SDS011;2698;51.454;6.736;2022-12-29T07:51:42;6.20;;;1.70;;
5351;SDS011;2698;51.454;6.736;2022-12-29T07:54:08;4.43;;;1.33;;
5351;SDS011;2698;51.454;6.736;2022-12-29T07:56:37;5.83;;;1.70;;
5351;SDS011;2698;51.454;6.736;2022-12-29T07:59:03;5.53;;;1.90;;
5351;SDS011;2698;51.454;6.736;2022-12-29T08:01:30;5.70;;;1.20;;
5351;SDS011;2698;51.454;6.736;2022-12-29T08:03:57;9.93;;;1.87;;
5351;SDS011;2698;51.454;6.736;2022-12-29T08:06:25;5.43;;;1.80;;
5351;SDS011;2698;51.454;6.736;2022-12-29T08:08:52;4.30;;;1.80;;
5351;SDS011;2698;51.454;6.736;2022-12-29T08:11:21;2.90;;;1.70;;
5351;SDS011;2698;51.454;6.736;2022-12-29T08:13:47;7.77;;;1.67;;
5351;SDS011;2698;51.454;6.736;2022-12-29T08:16:14;4.57;;;1.50;;
5351;SDS011;2698;51.454;6.736;2022-12-29T08:18:41;10.73;;;2.33;;
5351;SDS011;2698;51.454;6.736;2022-12-29T08:21:08;11.13;;;2.00;;
5351;SDS011;2698;51.454;6.736;2022-12-29T08:23:36;3.37;;;1.73;;
5351;SDS011;2698;51.454;6.736;2022-12-29T08:26:04;6.87;;;2.20;;
5351;SDS011;2698;51.454;6.736;2022-12-29T08:28:31;4.27;;;1.97;;
5351;SDS011;2698;51.454;6.736;2022-12-29T08:30:58;6.73;;;1.30;;
5351;SDS011;2698;51.454;6.736;2022-12-29T08:33:26;4.67;;;2.13;;
5351;SDS011;2698;51.454;6.736;2022-12-29T08:35:58;8.13;;;1.67;;
5351;SDS011;2698;51.454;6.736;2022-12-29T08:38:26;7.20;;;1.70;;
5351;SDS011;2698;51.454;6.736;2022-12-29T08:40:55;4.00;;;1.40;;
5351;SDS011;2698;51.454;6.736;2022-12-29T08:43:22;6.40;;;2.50;;
5351;SDS011;2698;51.454;6.736;2022-12-29T08:45:49;3.57;;;1.57;;
5351;SDS011;2698;51.454;6.736;2022-12-29T08:48:16;5.40;;;1.70;;
5351;SDS011;2698;51.454;6.736;2022-12-29T08:50:44;8.13;;;1.90;;
5351;SDS011;2698;51.454;6.736;2022-12-29T08:53:12;14.63;;;2.50;;
5351;SDS011;2698;51.454;6.736;2022-12-29T08:55:39;7.67;;;2.00;;
5351;SDS011;2698;51.454;6.736;2022-12-29T08:58:07;7.80;;;1.67;;
5351;SDS011;2698;51.454;6.736;2022-12-29T09:00:34;5.13;;;2.17;;
5351;SDS011;2698;51.454;6.736;2022-12-29T09:03:01;7.03;;;2.27;;
5351;SDS011;2698;51.454;6.736;2022-12-29T09:05:28;6.67;;;2.30;;
5351;SDS011;2698;51.454;6.736;2022-12-29T09:07:55;11.13;;;1.90;;
5351;SDS011;2698;51.454;6.736;2022-12-29T09:10:21;5.90;;;1.80;;
5351;SDS011;2698;51.454;6.736;2022-12-29T09:12:48;4.77;;;1.93;;
5351;SDS011;2698;51.454;6.736;2022-12-29T09:15:16;9.23;;;2.40;;
5351;SDS011;2698;51.454;6.736;2022-12-29T09:17:43;7.47;;;2.00;;
5351;SDS011;2698;51.454;6.736;2022-12-29T09:20:11;6.60;;;1.67;;
5351;SDS011;2698;51.454;6.736;2022-12-29T09:22:38;10.00;;;2.00;;
5351;SDS011;2698;51.454;6.736;2022-12-29T09:25:05;5.23;;;1.43;;
5351;SDS011;2698;51.454;6.736;2022-12-29T09:27:34;3.57;;;2.20;;
5351;SDS011;2698;51.454;6.736;2022-12-29T09:30:01;6.00;;;1.67;;
5351;SDS011;2698;51.454;6.736;2022-12-29T09:32:29;5.10;;;1.67;;
5351;SDS011;2698;51.454;6.736;2022-12-29T09:34:55;7.50;;;1.83;;
5351;SDS011;2698;51.454;6.736;2022-12-29T09:37:22;6.13;;;1.73;;
5351;SDS011;2698;51.454;6.736;2022-12-29T09:39:49;9.43;;;1.80;;
5351;SDS011;2698;51.454;6.736;2022-12-29T09:42:17;9.27;;;2.10;;
5351;SDS011;2698;51.454;6.736;2022-12-29T09:44:50;3.93;;;1.73;;
5351;SDS011;2698;51.454;6.736;2022-12-29T09:47:22;4.57;;;2.30;;
5351;SDS011;2698;51.454;6.736;2022-12-29T09:49:53;7.03;;;2.37;;
5351;SDS011;2698;51.454;6.736;2022-12-29T09:52:25;3.00;;;1.47;;
5351;SDS011;2698;51.454;6.736;2022-12-29T09:54:56;9.70;;;2.80;;
5351;SDS011;2698;51.454;6.736;2022-12-29T09:57:26;6.27;;;2.23;;
5351;SDS011;2698;51.454;6.736;2022-12-29T09:59:56;13.77;;;2.67;;
5351;SDS011;2698;51.454;6.736;2022-12-29T10:02:31;3.70;;;2.20;;
5351;SDS011;2698;51.454;6.736;2022-12-29T10:05:04;8.07;;;2.53;;
5351;SDS011;2698;51.454;6.736;2022-12-29T10:07:43;6.10;;;2.17;;
5351;SDS011;2698;51.454;6.736;2022-12-29T10:10:20;7.27;;;1.90;;
5351;SDS011;2698;51.454;6.736;2022-12-29T10:12:58;6.33;;;1.67;;
5351;SDS011;2698;51.454;6.736;2022-12-29T10:15:40;11.77;;;2.07;;
5351;SDS011;2698;51.454;6.736;2022-12-29T10:18:22;10.70;;;2.43;;
5351;SDS011;2698;51.454;6.736;2022-12-29T10:21:07;8.00;;;1.83;;
5351;SDS011;2698;51.454;6.736;2022-12-29T10:23:43;11.17;;;2.33;;
5351;SDS011;2698;51.454;6.736;2022-12-29T10:26:13;11.20;;;2.40;;
5351;SDS011;2698;51.454;6.736;2022-12-29T10:28:44;7.27;;;2.80;;
5351;SDS011;2698;51.454;6.736;2022-12-29T10:31:15;8.23;;;2.10;;
5351;SDS011;2698;51.454;6.736;2022-12-29T10:33:48;5.80;;;1.57;;
5351;SDS011;2698;51.454;6.736;2022-12-29T10:36:20;6.60;;;1.70;;
5351;SDS011;2698;51.454;6.736;2022-12-29T10:38:54;12.30;;;2.80;;
5351;SDS011;2698;51.454;6.736;2022-12-29T10:41:32;5.37;;;2.00;;
5351;SDS011;2698;51.454;6.736;2022-12-29T10:44:04;9.00;;;2.23;;
5351;SDS011;2698;51.454;6.736;2022-12-29T10:46:32;10.93;;;2.00;;
5351;SDS011;2698;51.454;6.736;2022-12-29T10:49:01;10.97;;;3.00;;
5351;SDS011;2698;51.454;6.736;2022-12-29T10:51:31;6.83;;;1.70;;
5351;SDS011;2698;51.454;6.736;2022-12-29T10:54:03;6.97;;;2.13;;
5351;SDS011;2698;51.454;6.736;2022-12-29T10:56:36;12.60;;;2.93;;
5351;SDS011;2698;51.454;6.736;2022-12-29T10:59:10;8.53;;;2.50;;
5351;SDS011;2698;51.454;6.736;2022-12-29T11:01:44;9.87;;;1.73;;
5351;SDS011;2698;51.454;6.736;2022-12-29T11:04:23;10.13;;;2.70;;
5351;SDS011;2698;51.454;6.736;2022-12-29T11:07:09;9.17;;;2.10;;
5351;SDS011;2698;51.454;6.736;2022-12-29T11:09:37;8.00;;;2.33;;
5351;SDS011;2698;51.454;6.736;2022-12-29T11:12:17;7.77;;;2.27;;
5351;SDS011;2698;51.454;6.736;2022-12-29T11:14:46;4.87;;;2.00;;
5351;SDS011;2698;51.454;6.736;2022-12-29T11:17:14;11.43;;;2.13;;
5351;SDS011;2698;51.454;6.736;2022-12-29T11:19:41;6.63;;;2.00;;
5351;SDS011;2698;51.454;6.736;2022-12-29T11:22:14;11.90;;;3.40;;
5351;SDS011;2698;51.454;6.736;2022-12-29T11:24:47;5.67;;;1.83;;
5351;SDS011;2698;51.454;6.736;2022-12-29T11:27:16;4.17;;;2.33;;
5351;SDS011;2698;51.454;6.736;2022-12-29T11:29:45;8.80;;;2.10;;
5351;SDS011;2698;51.454;6.736;2022-12-29T11:32:17;7.73;;;1.77;;
5351;SDS011;2698;51.454;6.736;2022-12-29T11:34:45;8.07;;;2.03;;
5351;SDS011;2698;51.454;6.736;2022-12-29T11:37:14;8.83;;;2.47;;
5351;SDS011;2698;51.454;6.736;2022-12-29T11:39:45;11.60;;;3.10;;
5351;SDS011;2698;51.454;6.736;2022-12-29T11:42:17;8.93;;;2.90;;
5351;SDS011;2698;51.454;6.736;2022-12-29T11:44:49;11.40;;;2.70;;
5351;SDS011;2698;51.454;6.736;2022-12-29T11:47:22;8.00;;;1.93;;
5351;SDS011;2698;51.454;6.736;2022-12-29T11:49:53;6.03;;;2.07;;
5351;SDS011;2698;51.454;6.736;2022-12-29T11:52:25;9.77;;;2.10;;
5351;SDS011;2698;51.454;6.736;2022-12-29T11:54:54;15.73;;;2.83;;
5351;SDS011;2698;51.454;6.736;2022-12-29T11:57:22;12.70;;;2.97;;
5351;SDS011;2698;51.454;6.736;2022-12-29T11:59:50;8.30;;;2.03;;
5351;SDS011;2698;51.454;6.736;2022-12-29T12:02:30;11.10;;;2.50;;
5351;SDS011;2698;51.454;6.736;2022-12-29T12:05:01;8.20;;;2.17;;
5351;SDS011;2698;51.454;6.736;2022-12-29T12:07:39;5.10;;;1.87;;
5351;SDS011;2698;51.454;6.736;2022-12-29T12:10:11;9.70;;;1.93;;
5351;SDS011;2698;51.454;6.736;2022-12-29T12:12:44;9.47;;;3.20;;
5351;SDS011;2698;51.454;6.736;2022-12-29T12:15:16;8.23;;;2.40;;
5351;SDS011;2698;51.454;6.736;2022-12-29T12:17:47;5.50;;;2.03;;
5351;SDS011;2698;51.454;6.736;2022-12-29T12:20:19;12.53;;;2.07;;
5351;SDS011;2698;51.454;6.736;2022-12-29T12:22:51;10.97;;;2.23;;
5351;SDS011;2698;51.454;6.736;2022-12-29T12:25:27;6.97;;;2.20;;
5351;SDS011;2698;51.454;6.736;2022-12-29T12:28:00;13.07;;;2.33;;
5351;SDS011;2698;51.454;6.736;2022-12-29T12:30:33;3.87;;;1.97;;
5351;SDS011;2698;51.454;6.736;2022-12-29T12:33:06;6.83;;;1.77;;
5351;SDS011;2698;51.454;6.736;2022-12-29T12:35:43;7.53;;;2.23;;
5351;SDS011;2698;51.454;6.736;2022-12-29T12:38:17;7.67;;;2.00;;
5351;SDS011;2698;51.454;6.736;2022-12-29T12:41:00;7.57;;;2.13;;
5351;SDS011;2698;51.454;6.736;2022-12-29T12:43:38;7.90;;;2.10;;
5351;SDS011;2698;51.454;6.736;2022-12-29T12:49:15;14.27;;;2.73;;
5351;SDS011;2698;51.454;6.736;2022-12-29T12:51:54;8.20;;;1.60;;
5351;SDS011;2698;51.454;6.736;2022-12-29T12:54:33;10.03;;;2.27;;
5351;SDS011;2698;51.454;6.736;2022-12-29T12:57:11;7.10;;;2.10;;
5351;SDS011;2698;51.454;6.736;2022-12-29T12:59:47;11.50;;;1.97;;
5351;SDS011;2698;51.454;6.736;2022-12-29T13:02:26;13.77;;;1.93;;
5351;SDS011;2698;51.454;6.736;2022-12-29T13:05:08;13.80;;;2.37;;
5351;SDS011;2698;51.454;6.736;2022-12-29T13:07:51;7.07;;;2.10;;
5351;SDS011;2698;51.454;6.736;2022-12-29T13:10:32;5.10;;;1.87;;
5351;SDS011;2698;51.454;6.736;2022-12-29T13:13:15;8.07;;;2.73;;
5351;SDS011;2698;51.454;6.736;2022-12-29T13:16:04;6.37;;;1.87;;
5351;SDS011;2698;51.454;6.736;2022-12-29T13:18:41;6.50;;;1.97;;
5351;SDS011;2698;51.454;6.736;2022-12-29T13:21:24;7.07;;;2.07;;
5351;SDS011;2698;51.454;6.736;2022-12-29T13:24:00;4.87;;;1.77;;
5351;SDS011;2698;51.454;6.736;2022-12-29T13:26:38;10.43;;;2.07;;
5351;SDS011;2698;51.454;6.736;2022-12-29T13:29:12;13.73;;;2.80;;
5351;SDS011;2698;51.454;6.736;2022-12-29T13:31:44;6.27;;;2.73;;
5351;SDS011;2698;51.454;6.736;2022-12-29T13:34:19;12.67;;;2.43;;
5351;SDS011;2698;51.454;6.736;2022-12-29T13:36:57;8.07;;;2.03;;
5351;SDS011;2698;51.454;6.736;2022-12-29T13:39:27;7.87;;;1.67;;
5351;SDS011;2698;51.454;6.736;2022-12-29T13:42:01;9.93;;;1.80;;
5351;SDS011;2698;51.454;6.736;2022-12-29T13:44:31;6.00;;;1.90;;
5351;SDS011;2698;51.454;6.736;2022-12-29T13:47:01;7.90;;;2.53;;
5351;SDS011;2698;51.454;6.736;2022-12-29T13:49:31;14.77;;;2.47;;
5351;SDS011;2698;51.454;6.736;2022-12-29T13:52:03;7.50;;;1.90;;
5351;SDS011;2698;51.454;6.736;2022-12-29T13:54:39;10.03;;;2.10;;
5351;SDS011;2698;51.454;6.736;2022-12-29T13:57:14;11.73;;;3.70;;
5351;SDS011;2698;51.454;6.736;2022-12-29T13:59:50;7.50;;;1.80;;
5351;SDS011;2698;51.454;6.736;2022-12-29T14:02:26;12.43;;;3.00;;
5351;SDS011;2698;51.454;6.736;2022-12-29T14:04:58;9.07;;;2.30;;
5351;SDS011;2698;51.454;6.736;2022-12-29T14:07:26;15.03;;;2.80;;
5351;SDS011;2698;51.454;6.736;2022-12-29T14:09:54;11.87;;;3.47;;
5351;SDS011;2698;51.454;6.736;2022-12-29T14:12:31;6.10;;;3.70;;
5351;SDS011;2698;51.454;6.736;2022-12-29T14:15:03;7.60;;;4.50;;
5351;SDS011;2698;51.454;6.736;2022-12-29T14:17:32;13.40;;;2.90;;
5351;SDS011;2698;51.454;6.736;2022-12-29T14:19:59;12.33;;;2.50;;
5351;SDS011;2698;51.454;6.736;2022-12-29T14:22:26;10.57;;;3.00;;
5351;SDS011;2698;51.454;6.736;2022-12-29T14:24:54;8.20;;;3.03;;
5351;SDS011;2698;51.454;6.736;2022-12-29T14:33:15;16.10;;;2.23;;
5351;SDS011;2698;51.454;6.736;2022-12-29T14:35:43;5.43;;;1.83;;
5351;SDS011;2698;51.454;6.736;2022-12-29T14:38:24;9.30;;;2.73;;
5351;SDS011;2698;51.454;6.736;2022-12-29T14:41:15;7.97;;;2.07;;
5351;SDS011;2698;51.454;6.736;2022-12-29T14:43:56;6.03;;;2.50;;
5351;SDS011;2698;51.454;6.736;2022-12-29T14:46:25;15.47;;;2.90;;
5351;SDS011;2698;51.454;6.736;2022-12-29T14:49:08;17.00;;;3.27;;
5351;SDS011;2698;51.454;6.736;2022-12-29T14:51:44;8.83;;;2.43;;
5351;SDS011;2698;51.454;6.736;2022-12-29T14:57:12;6.07;;;3.17;;
5351;SDS011;2698;51.454;6.736;2022-12-29T15:00:06;7.87;;;2.33;;
5351;SDS011;2698;51.454;6.736;2022-12-29T15:02:42;9.00;;;2.77;;
5351;SDS011;2698;51.454;6.736;2022-12-29T15:05:20;8.27;;;2.50;;
5351;SDS011;2698;51.454;6.736;2022-12-29T15:08:00;8.93;;;3.20;;
5351;SDS011;2698;51.454;6.736;2022-12-29T15:10:32;9.83;;;2.87;;
5351;SDS011;2698;51.454;6.736;2022-12-29T15:13:04;6.00;;;2.50;;
5351;SDS011;2698;51.454;6.736;2022-12-29T15:15:40;4.57;;;2.40;;
5351;SDS011;2698;51.454;6.736;2022-12-29T15:18:26;8.20;;;2.20;;
5351;SDS011;2698;51.454;6.736;2022-12-29T15:20:55;7.13;;;2.93;;
5351;SDS011;2698;51.454;6.736;2022-12-29T15:23:24;5.70;;;2.50;;
5351;SDS011;2698;51.454;6.736;2022-12-29T15:25:53;4.73;;;1.93;;
5351;SDS011;2698;51.454;6.736;2022-12-29T15:28:22;8.83;;;1.87;;
5351;SDS011;2698;51.454;6.736;2022-12-29T15:30:51;5.13;;;1.80;;
5351;SDS011;2698;51.454;6.736;2022-12-29T15:33:20;3.80;;;1.40;;
5351;SDS011;2698;51.454;6.736;2022-12-29T15:35:49;19.43;;;2.30;;
5351;SDS011;2698;51.454;6.736;2022-12-29T15:38:20;10.27;;;2.33;;
5351;SDS011;2698;51.454;6.736;2022-12-29T15:40:51;10.93;;;3.53;;
5351;SDS011;2698;51.454;6.736;2022-12-29T15:43:25;8.00;;;2.43;;
5351;SDS011;2698;51.454;6.736;2022-12-29T15:46:04;7.43;;;2.40;;
5351;SDS011;2698;51.454;6.736;2022-12-29T15:48:31;5.03;;;3.10;;
5351;SDS011;2698;51.454;6.736;2022-12-29T15:50:58;10.67;;;4.33;;